createdAt,value
2022-12-17T00:01:06.270Z,73.94
2022-12-17T00:03:51.741Z,73.48
2022-12-17T00:06:37.488Z,73.41
2022-12-17T00:09:22.734Z,73.13
2022-12-17T00:12:08.957Z,73.08
2022-12-17T00:14:54.988Z,73.57
2022-12-17T00:17:41.519Z,73.32
2022-12-17T00:20:27.018Z,73.51
2022-12-17T00:23:19.003Z,73.13
2022-12-17T00:26:08.179Z,73.41
2022-12-17T00:28:53.484Z,73.25
2022-12-17T00:31:39.842Z,73.39
2022-12-17T00:34:25.208Z,73.12
2022-12-17T00:37:12.141Z,73.30
2022-12-17T00:39:59.404Z,73.49
2022-12-17T00:42:46.390Z,73.18
2022-12-17T00:45:31.579Z,73.25
2022-12-17T00:48:16.862Z,73.16
2022-12-17T00:51:02.114Z,73.44
2022-12-17T00:53:47.059Z,73.22
2022-12-17T00:56:32.904Z,73.70
2022-12-17T00:59:17.856Z,73.45
2022-12-17T01:02:02.875Z,73.43
2022-12-17T01:04:48.271Z,72.97
2022-12-17T01:07:33.649Z,73.23
2022-12-17T01:10:18.904Z,73.12
2022-12-17T01:13:04.012Z,72.72
2022-12-17T01:15:49.350Z,73.15
2022-12-17T01:18:38.321Z,73.16
2022-12-17T01:21:23.572Z,72.89
2022-12-17T01:24:08.925Z,73.07
2022-12-17T01:26:55.198Z,72.94
2022-12-17T01:29:41.555Z,72.93
2022-12-17T01:32:27.039Z,72.87
2022-12-17T01:35:12.213Z,72.74
2022-12-17T01:37:57.481Z,73.01
2022-12-17T01:40:42.715Z,72.78
2022-12-17T01:43:29.875Z,72.62
2022-12-17T01:46:15.481Z,72.96
2022-12-17T01:49:02.351Z,72.48
2022-12-17T01:51:47.617Z,72.87
2022-12-17T01:54:33.062Z,72.80
2022-12-17T01:57:18.273Z,72.63
2022-12-17T02:00:11.817Z,72.29
2022-12-17T02:03:00.841Z,72.50
2022-12-17T02:06:10.059Z,72.77
2022-12-17T02:09:01.462Z,72.80
2022-12-17T02:11:52.692Z,72.64
2022-12-17T02:14:51.495Z,72.86
2022-12-17T02:17:38.165Z,72.47
2022-12-17T02:20:42.537Z,72.29
2022-12-17T02:23:30.947Z,72.53
2022-12-17T02:26:19.319Z,73.10
2022-12-17T02:29:05.111Z,72.64
2022-12-17T02:31:50.448Z,72.73
2022-12-17T02:34:35.617Z,73.03
2022-12-17T02:37:20.944Z,72.34
2022-12-17T02:40:06.134Z,72.17
2022-12-17T02:42:52.842Z,72.72
2022-12-17T02:45:38.233Z,72.26
2022-12-17T02:48:24.643Z,72.18
2022-12-17T02:51:14.497Z,72.11
2022-12-17T02:54:03.310Z,72.66
2022-12-17T02:56:48.855Z,72.34
2022-12-17T02:59:33.949Z,72.37
2022-12-17T03:02:26.612Z,72.43
2022-12-17T03:05:42.947Z,72.25
2022-12-17T03:08:17.164Z,72.05
2022-12-17T03:11:02.358Z,71.89
2022-12-17T03:13:47.670Z,72.01
2022-12-17T03:16:37.521Z,72.67
2022-12-17T03:19:23.221Z,72.39
2022-12-17T03:22:08.611Z,72.46
2022-12-17T03:24:53.750Z,72.76
2022-12-17T03:27:38.752Z,72.11
2022-12-17T03:30:24.226Z,72.00
2022-12-17T03:33:09.302Z,72.36
2022-12-17T03:35:54.611Z,72.25
2022-12-17T03:38:39.809Z,72.42
2022-12-17T03:41:25.255Z,72.67
2022-12-17T03:44:10.697Z,72.66
2022-12-17T03:46:55.855Z,73.15
2022-12-17T03:49:41.201Z,73.31
2022-12-17T03:52:26.601Z,73.65
2022-12-17T03:55:12.043Z,73.29
2022-12-17T03:57:57.521Z,73.05
2022-12-17T04:00:42.905Z,72.81
2022-12-17T04:03:28.359Z,73.38
2022-12-17T04:06:13.638Z,73.46
2022-12-17T04:08:59.022Z,74.21
2022-12-17T04:11:44.451Z,74.56
2022-12-17T04:14:29.907Z,75.01
2022-12-17T04:17:15.340Z,75.46
2022-12-17T04:20:00.458Z,75.59
2022-12-17T04:22:45.727Z,75.25
2022-12-17T04:25:30.879Z,74.58
2022-12-17T04:28:16.302Z,75.04
2022-12-17T04:31:01.354Z,74.33
2022-12-17T04:33:46.643Z,74.27
2022-12-17T04:36:31.928Z,74.72
2022-12-17T04:39:17.128Z,74.77
2022-12-17T04:42:02.458Z,75.50
2022-12-17T04:44:47.637Z,75.68
2022-12-17T04:47:32.977Z,76.13
2022-12-17T04:50:18.313Z,75.62
2022-12-17T04:53:03.557Z,75.19
2022-12-17T04:55:48.899Z,75.93
2022-12-17T04:58:34.073Z,76.39
2022-12-17T05:01:19.551Z,75.92
2022-12-17T05:04:04.788Z,75.56
2022-12-17T05:06:50.025Z,74.65
2022-12-17T05:09:35.296Z,74.69
2022-12-17T05:12:20.499Z,74.35
2022-12-17T05:15:05.889Z,75.21
2022-12-17T05:17:50.971Z,74.98
2022-12-17T05:20:35.941Z,75.03
2022-12-17T05:23:24.895Z,74.55
2022-12-17T05:26:14.705Z,75.24
2022-12-17T05:28:59.903Z,76.28
2022-12-17T05:31:45.266Z,76.04
2022-12-17T05:34:30.617Z,76.09
2022-12-17T05:37:15.522Z,76.03
2022-12-17T05:40:00.798Z,75.24
2022-12-17T05:42:46.085Z,75.51
2022-12-17T05:45:31.465Z,74.64
2022-12-17T05:48:16.764Z,74.41
2022-12-17T05:51:01.890Z,74.11
2022-12-17T05:53:47.052Z,74.76
2022-12-17T05:56:35.415Z,74.70
2022-12-17T05:59:20.874Z,73.80
2022-12-17T06:02:06.010Z,75.01
2022-12-17T06:04:51.302Z,74.22
2022-12-17T06:07:36.535Z,73.71
2022-12-17T06:10:21.815Z,74.12
2022-12-17T06:13:13.703Z,73.46
2022-12-17T06:15:58.945Z,73.84
2022-12-17T06:18:44.146Z,73.22
2022-12-17T06:21:29.493Z,74.48
2022-12-17T06:24:14.512Z,74.36
2022-12-17T06:26:59.657Z,74.66
2022-12-17T06:29:44.981Z,73.95
2022-12-17T06:32:30.349Z,74.17
2022-12-17T06:35:15.624Z,73.75
2022-12-17T06:38:01.892Z,73.25
2022-12-17T06:40:47.442Z,73.65
2022-12-17T06:43:32.697Z,73.96
2022-12-17T06:46:17.887Z,73.34
2022-12-17T06:49:03.329Z,73.87
2022-12-17T06:51:48.530Z,74.21
2022-12-17T06:54:33.818Z,74.74
2022-12-17T06:57:19.092Z,75.39
2022-12-17T07:00:04.308Z,75.44
2022-12-17T07:02:49.639Z,75.53
2022-12-17T07:05:34.891Z,74.90
2022-12-17T07:08:20.169Z,74.56
2022-12-17T07:11:05.262Z,74.83
2022-12-17T07:13:50.498Z,73.81
2022-12-17T07:16:35.771Z,74.29
2022-12-17T07:19:26.793Z,73.93
2022-12-17T07:22:12.298Z,73.79
2022-12-17T07:24:57.604Z,75.03
2022-12-17T07:27:45.196Z,74.68
2022-12-17T07:30:30.581Z,74.25
2022-12-17T07:33:19.398Z,75.18
2022-12-17T07:36:04.581Z,75.10
2022-12-17T07:38:50.423Z,74.67
2022-12-17T07:41:42.947Z,74.77
2022-12-17T07:44:27.795Z,74.94
2022-12-17T07:47:33.025Z,75.13
2022-12-17T07:50:17.887Z,74.47
2022-12-17T07:53:03.063Z,74.50
2022-12-17T07:55:48.140Z,74.47
2022-12-17T07:58:33.205Z,74.50
2022-12-17T08:01:19.144Z,74.29
2022-12-17T08:04:04.431Z,74.14
2022-12-17T08:06:49.713Z,73.52
2022-12-17T08:09:34.851Z,73.26
2022-12-17T08:12:20.259Z,72.73
2022-12-17T08:15:05.230Z,72.09
2022-12-17T08:17:50.645Z,72.88
2022-12-17T08:20:35.994Z,73.83
2022-12-17T08:23:24.724Z,73.33
2022-12-17T08:26:10.028Z,72.75
2022-12-17T08:28:55.278Z,73.27
2022-12-17T08:31:42.287Z,72.93
2022-12-17T08:34:27.570Z,73.20
2022-12-17T08:37:12.822Z,73.63
2022-12-17T08:39:57.817Z,73.69
2022-12-17T08:42:42.901Z,73.36
2022-12-17T08:45:28.512Z,72.14
2022-12-17T08:48:20.987Z,72.10
2022-12-17T08:51:06.226Z,72.70
2022-12-17T08:53:51.393Z,72.71
2022-12-17T08:56:36.494Z,71.50
2022-12-17T08:59:21.923Z,71.75
2022-12-17T09:02:07.985Z,71.78
2022-12-17T09:04:53.141Z,71.86
2022-12-17T09:07:38.503Z,72.53
2022-12-17T09:10:23.947Z,71.54
2022-12-17T09:13:09.297Z,71.52
2022-12-17T09:15:57.218Z,72.55
2022-12-17T09:18:44.404Z,71.83
2022-12-17T09:21:29.295Z,70.27
2022-12-17T09:24:14.757Z,70.59
2022-12-17T09:27:02.446Z,70.27
2022-12-17T09:29:55.982Z,69.69
2022-12-17T09:32:44.414Z,70.59
2022-12-17T09:35:35.054Z,70.22
2022-12-17T09:38:20.538Z,69.58
2022-12-17T09:41:06.400Z,70.79
2022-12-17T09:43:58.020Z,70.07
2022-12-17T09:46:48.466Z,69.04
2022-12-17T09:49:35.274Z,70.13
2022-12-17T09:52:22.123Z,69.25
2022-12-17T09:55:09.690Z,68.75
2022-12-17T09:57:55.576Z,69.12
2022-12-17T10:00:44.756Z,69.89
2022-12-17T10:03:31.607Z,68.37
2022-12-17T10:06:22.366Z,68.09
2022-12-17T10:09:08.665Z,68.68
2022-12-17T10:11:53.913Z,68.36
2022-12-17T10:14:42.555Z,68.68
2022-12-17T10:17:38.101Z,68.96
2022-12-17T10:20:25.117Z,68.66
2022-12-17T10:23:10.434Z,69.31
2022-12-17T10:25:55.715Z,67.95
2022-12-17T10:28:44.080Z,69.20
2022-12-17T10:31:30.520Z,67.93
2022-12-17T10:34:15.846Z,68.90
2022-12-17T10:37:05.365Z,67.92
2022-12-17T10:39:50.679Z,67.49
2022-12-17T10:42:40.174Z,69.14
2022-12-17T10:45:41.562Z,69.51
2022-12-17T10:48:45.708Z,68.56
2022-12-17T10:51:42.867Z,67.45
2022-12-17T10:54:29.676Z,66.66
2022-12-17T10:57:15.488Z,67.30
2022-12-17T11:00:00.692Z,67.41
2022-12-17T11:02:46.780Z,68.44
2022-12-17T11:05:33.559Z,68.88
2022-12-17T11:08:18.777Z,68.13
2022-12-17T11:11:04.169Z,68.27
2022-12-17T11:13:50.865Z,66.85
2022-12-17T11:16:45.584Z,67.50
2022-12-17T11:19:30.774Z,67.17
2022-12-17T11:22:16.686Z,67.48
2022-12-17T11:25:11.101Z,68.75
2022-12-17T11:27:59.217Z,67.55
2022-12-17T11:30:47.335Z,66.29
2022-12-17T11:33:36.841Z,66.53
2022-12-17T11:36:31.259Z,66.69
2022-12-17T11:39:46.957Z,65.74
2022-12-17T11:42:35.207Z,67.05
2022-12-17T11:45:35.170Z,65.32
2022-12-17T11:48:22.555Z,65.99
2022-12-17T11:51:13.146Z,66.16
2022-12-17T11:54:04.621Z,65.66
2022-12-17T11:56:52.066Z,64.94
2022-12-17T11:59:40.348Z,65.38
2022-12-17T12:02:25.662Z,65.03
2022-12-17T12:05:18.602Z,66.33
2022-12-17T12:08:05.881Z,66.94
2022-12-17T12:10:54.283Z,65.85
2022-12-17T12:13:45.576Z,67.04
2022-12-17T12:16:33.636Z,65.94
2022-12-17T12:19:27.368Z,66.33
2022-12-17T12:22:18.681Z,65.58
2022-12-17T12:25:06.903Z,65.95
2022-12-17T12:27:57.731Z,66.80
2022-12-17T12:30:43.103Z,67.50
2022-12-17T12:33:40.590Z,66.86
2022-12-17T12:36:27.509Z,66.06
2022-12-17T12:39:13.286Z,68.38
2022-12-17T12:42:07.565Z,67.18
2022-12-17T12:44:55.852Z,66.94
2022-12-17T12:47:46.793Z,66.30
2022-12-17T12:50:51.156Z,66.13
2022-12-17T12:53:36.610Z,66.10
2022-12-17T12:56:21.763Z,66.88
2022-12-17T12:59:07.161Z,65.93
2022-12-17T13:01:55.623Z,66.34
2022-12-17T13:04:53.930Z,66.61
2022-12-17T13:07:21.490Z,66.10
2022-12-17T13:09:50.330Z,65.44
2022-12-17T13:12:21.078Z,66.14
2022-12-17T13:14:50.731Z,66.22
2022-12-17T13:17:17.239Z,66.04
2022-12-17T13:19:44.799Z,66.24
2022-12-17T13:22:17.633Z,66.08
2022-12-17T13:24:49.210Z,66.72
2022-12-17T13:27:27.568Z,66.35
2022-12-17T13:29:54.061Z,67.16
2022-12-17T13:32:25.886Z,67.02
2022-12-17T13:35:10.084Z,66.94
2022-12-17T13:37:48.255Z,66.70
2022-12-17T13:40:17.687Z,66.82
2022-12-17T13:42:45.326Z,67.01
2022-12-17T13:45:16.081Z,68.29
2022-12-17T13:47:42.548Z,68.81
2022-12-17T13:50:35.935Z,67.48
2022-12-17T13:53:10.589Z,67.12
2022-12-17T13:55:50.777Z,66.47
2022-12-17T13:58:40.544Z,66.98
2022-12-17T14:01:08.354Z,67.88
2022-12-17T14:04:05.721Z,67.91
2022-12-17T14:06:30.904Z,67.95
2022-12-17T14:08:57.782Z,67.88
2022-12-17T14:11:43.109Z,68.09
2022-12-17T14:14:28.539Z,68.22
2022-12-17T14:16:55.255Z,67.95
2022-12-17T14:19:22.097Z,68.44
2022-12-17T14:21:48.610Z,68.15
2022-12-17T14:24:15.130Z,68.06
2022-12-17T14:26:51.860Z,68.88
2022-12-17T14:29:25.313Z,68.56
2022-12-17T14:32:03.742Z,68.55
2022-12-17T14:34:42.225Z,68.19
2022-12-17T14:37:19.884Z,67.32
2022-12-17T14:39:46.869Z,68.11
2022-12-17T14:42:25.731Z,68.47
2022-12-17T14:45:00.513Z,68.49
2022-12-17T14:47:31.720Z,68.01
2022-12-17T14:50:06.556Z,68.15
2022-12-17T14:52:37.034Z,68.48
2022-12-17T14:55:22.622Z,69.06
2022-12-17T14:57:49.828Z,69.43
2022-12-17T15:00:17.209Z,69.14
2022-12-17T15:02:54.877Z,69.60
2022-12-17T15:05:21.579Z,70.16
2022-12-17T15:07:48.074Z,69.80
2022-12-17T15:10:16.661Z,68.18
2022-12-17T15:12:43.420Z,67.67
2022-12-17T15:15:13.736Z,67.79
2022-12-17T15:17:40.474Z,68.63
2022-12-17T15:20:10.214Z,69.24
2022-12-17T15:22:39.576Z,69.14
2022-12-17T15:25:10.352Z,70.06
2022-12-17T15:27:37.064Z,70.37
2022-12-17T15:30:03.981Z,69.67
2022-12-17T15:32:31.249Z,70.38
2022-12-17T15:34:57.770Z,70.87
2022-12-17T15:37:25.925Z,70.75
2022-12-17T15:39:52.599Z,71.14
2022-12-17T15:42:38.034Z,70.67
2022-12-17T15:45:04.799Z,70.50
2022-12-17T15:47:31.370Z,71.30
2022-12-17T15:49:57.925Z,69.75
2022-12-17T15:52:24.435Z,68.33
2022-12-17T15:54:50.944Z,68.85
2022-12-17T15:57:18.795Z,68.83
2022-12-17T15:59:45.569Z,69.33
2022-12-17T16:02:12.373Z,70.87
2022-12-17T16:04:39.182Z,71.00
2022-12-17T16:07:05.819Z,70.41
2022-12-17T16:09:32.325Z,71.32
2022-12-17T16:11:58.839Z,70.49
2022-12-17T16:14:25.358Z,70.78
2022-12-17T16:16:51.892Z,70.84
2022-12-17T16:19:18.449Z,70.39
2022-12-17T16:21:48.537Z,70.98
2022-12-17T16:24:14.998Z,70.97
2022-12-17T16:26:41.460Z,71.04
2022-12-17T16:29:07.925Z,71.41
2022-12-17T16:31:34.469Z,71.36
2022-12-17T16:34:01.028Z,71.37
2022-12-17T16:36:27.651Z,72.38
2022-12-17T16:38:54.315Z,71.98
2022-12-17T16:41:21.254Z,71.69
2022-12-17T16:43:48.182Z,72.49
2022-12-17T16:46:24.053Z,72.57
2022-12-17T16:48:50.609Z,72.07
2022-12-17T16:51:21.092Z,71.74
2022-12-17T16:53:52.451Z,72.25
2022-12-17T16:56:20.978Z,72.31
2022-12-17T16:58:47.704Z,72.06
2022-12-17T17:01:18.230Z,71.99
2022-12-17T17:03:44.887Z,72.32
2022-12-17T17:06:11.415Z,72.06
2022-12-17T17:08:38.462Z,71.90
2022-12-17T17:11:12.519Z,72.19
2022-12-17T17:13:39.035Z,72.42
2022-12-17T17:16:05.891Z,72.83
2022-12-17T17:18:32.621Z,72.63
2022-12-17T17:21:18.066Z,72.96
2022-12-17T17:23:45.264Z,72.47
2022-12-17T17:26:11.854Z,71.87
2022-12-17T17:28:38.937Z,71.00
2022-12-17T17:31:06.827Z,70.69
2022-12-17T17:33:34.946Z,69.74
2022-12-17T17:36:04.358Z,69.72
2022-12-17T17:38:32.702Z,70.30
2022-12-17T17:40:59.207Z,71.05
2022-12-17T17:43:25.694Z,70.96
2022-12-17T17:45:53.196Z,70.76
2022-12-17T17:48:20.051Z,71.29
2022-12-17T17:50:59.568Z,71.74
2022-12-17T17:53:26.150Z,71.62
2022-12-17T17:55:52.801Z,71.33
2022-12-17T17:58:19.353Z,71.69
2022-12-17T18:00:45.843Z,71.92
2022-12-17T18:03:12.385Z,71.56
2022-12-17T18:05:41.671Z,71.54
2022-12-17T18:08:08.846Z,71.64
2022-12-17T18:10:35.953Z,71.87
2022-12-17T18:13:20.920Z,71.75
2022-12-17T18:15:47.479Z,71.35
2022-12-17T18:18:14.834Z,71.56
2022-12-17T18:20:41.543Z,71.43
2022-12-17T18:23:08.461Z,71.94
2022-12-17T18:25:37.738Z,72.56
2022-12-17T18:28:04.741Z,72.56
2022-12-17T18:30:33.137Z,71.72
2022-12-17T18:33:03.126Z,71.64
2022-12-17T18:35:30.651Z,71.59
2022-12-17T18:38:06.545Z,71.48
2022-12-17T18:40:35.322Z,71.97
2022-12-17T18:43:20.895Z,71.25
2022-12-17T18:45:51.685Z,71.05
2022-12-17T18:48:18.978Z,71.33
2022-12-17T18:50:48.385Z,69.90
2022-12-17T18:53:15.155Z,69.10
2022-12-17T18:55:42.060Z,69.54
2022-12-17T18:58:09.178Z,69.01
2022-12-17T19:00:39.299Z,68.57
2022-12-17T19:03:06.889Z,68.28
2022-12-17T19:05:33.604Z,68.54
2022-12-17T19:08:00.241Z,68.33
2022-12-17T19:10:26.807Z,68.93
2022-12-17T19:12:53.555Z,69.01
2022-12-17T19:15:20.530Z,68.64
2022-12-17T19:17:50.858Z,69.38
2022-12-17T19:20:17.978Z,70.15
2022-12-17T19:22:44.482Z,70.45
2022-12-17T19:25:10.955Z,70.70
2022-12-17T19:27:37.492Z,70.98
2022-12-17T19:30:04.552Z,71.09
2022-12-17T19:32:31.566Z,71.40
2022-12-17T19:34:58.163Z,71.52
2022-12-17T19:37:24.698Z,70.34
2022-12-17T19:39:51.245Z,68.80
2022-12-17T19:45:06.610Z,68.97
2022-12-17T19:47:33.105Z,69.00
2022-12-17T19:49:59.568Z,69.23
2022-12-17T19:52:26.318Z,71.03
2022-12-17T19:54:52.988Z,71.12
2022-12-17T19:57:19.824Z,69.24
2022-12-17T19:59:46.343Z,69.56
2022-12-17T20:02:13.129Z,69.81
2022-12-17T20:04:39.849Z,70.31
2022-12-17T20:07:06.364Z,70.56
2022-12-17T20:09:32.861Z,71.54
2022-12-17T20:11:59.374Z,71.10
2022-12-17T20:14:26.563Z,71.00
2022-12-17T20:16:54.857Z,71.96
2022-12-17T20:19:25.386Z,70.96
2022-12-17T20:21:52.232Z,70.79
2022-12-17T20:24:18.816Z,71.11
2022-12-17T20:26:46.235Z,71.57
2022-12-17T20:29:12.854Z,70.92
2022-12-17T20:31:39.519Z,70.46
2022-12-17T20:34:07.086Z,70.36
2022-12-17T20:36:33.645Z,71.07
2022-12-17T20:39:00.247Z,70.79
2022-12-17T20:41:27.539Z,70.80
2022-12-17T20:43:54.114Z,71.18
2022-12-17T20:46:21.487Z,71.28
2022-12-17T20:48:48.061Z,71.61
2022-12-17T20:51:24.392Z,72.38
2022-12-17T20:53:52.061Z,71.27
2022-12-17T20:56:19.594Z,71.20
2022-12-17T20:58:46.347Z,70.86
2022-12-17T21:01:22.179Z,71.15
2022-12-17T21:03:50.008Z,71.72
2022-12-17T21:06:18.006Z,72.12
2022-12-17T21:08:49.383Z,71.51
2022-12-17T21:11:20.384Z,69.67
2022-12-17T21:13:46.920Z,69.69
2022-12-17T21:16:14.391Z,69.80
2022-12-17T21:18:41.744Z,69.21
2022-12-17T21:21:09.627Z,69.36
2022-12-17T21:23:36.316Z,69.79
2022-12-17T21:26:04.513Z,69.85
2022-12-17T21:28:37.089Z,69.76
2022-12-17T21:31:04.188Z,70.54
2022-12-17T21:33:31.277Z,70.35
2022-12-17T21:36:02.079Z,70.94
2022-12-17T21:38:34.374Z,71.07
2022-12-17T21:41:08.093Z,71.19
2022-12-17T21:43:36.816Z,69.89
2022-12-17T21:46:04.015Z,69.10
2022-12-17T21:48:30.549Z,68.49
2022-12-17T21:50:57.049Z,68.22
2022-12-17T21:53:23.940Z,68.09
2022-12-17T21:55:50.700Z,68.83
2022-12-17T21:58:18.328Z,69.59
2022-12-17T22:00:44.866Z,69.91
2022-12-17T22:03:11.435Z,70.26
2022-12-17T22:05:38.168Z,70.57
2022-12-17T22:08:05.385Z,70.64
2022-12-17T22:10:37.678Z,70.45
2022-12-17T22:13:36.105Z,70.00
2022-12-17T22:16:05.337Z,70.06
2022-12-17T22:18:31.916Z,70.21
2022-12-17T22:20:59.210Z,70.59
2022-12-17T22:23:25.773Z,71.08
2022-12-17T22:25:52.693Z,70.27
2022-12-17T22:28:19.193Z,69.73
2022-12-17T22:31:04.432Z,69.13
2022-12-17T22:33:52.483Z,69.15
2022-12-17T22:38:16.118Z,70.04
2022-12-17T22:41:59.917Z,69.76
2022-12-17T22:44:49.499Z,70.02
2022-12-17T22:45:04.331Z,70.25
2022-12-17T22:47:35.808Z,70.48
2022-12-17T22:50:02.305Z,70.49
2022-12-17T22:52:29.252Z,70.55
2022-12-17T22:54:55.997Z,71.52
2022-12-17T22:57:36.688Z,71.29
2022-12-17T23:00:16.333Z,71.42
2022-12-17T23:02:50.516Z,70.07
2022-12-17T23:05:19.728Z,68.98
2022-12-17T23:07:51.942Z,69.33
2022-12-17T23:10:20.698Z,69.75
2022-12-17T23:12:56.631Z,69.63
2022-12-17T23:15:28.900Z,70.13
2022-12-17T23:17:56.733Z,70.67
2022-12-17T23:20:29.803Z,70.58
2022-12-17T23:22:56.733Z,70.98
2022-12-17T23:25:26.952Z,71.09
2022-12-17T23:27:56.407Z,71.13
2022-12-17T23:30:26.209Z,71.00
2022-12-17T23:32:53.078Z,70.39
2022-12-17T23:35:19.686Z,70.08
2022-12-17T23:37:46.212Z,70.10
2022-12-17T23:40:12.964Z,70.16
2022-12-17T23:42:39.474Z,69.87
2022-12-17T23:45:06.161Z,70.26
2022-12-17T23:47:32.702Z,70.86
2022-12-17T23:49:59.181Z,70.72
2022-12-17T23:52:25.715Z,69.97
2022-12-17T23:54:52.518Z,69.77
2022-12-17T23:57:19.072Z,70.32
2022-12-17T23:59:45.559Z,68.60
